Time;durP1;ratioP1;P1;durP2;ratioP2;P2;SDS_P1;SDS_P2;PMS_P1;PMS_P2;Temp;Humidity;BMP_temperature;BMP_pressure;BME280_temperature;BME280_humidity;BME280_pressure;Samples;Min_cycle;Max_cycle;Signal;HPM_P1;HPM_P2
2022/09/12 00:00:10;;;;;;;11.13;7.53;;;14.50;41.70;;;;;;5050000;28;20173;-73
2022/09/12 00:02:36;;;;;;;9.40;7.90;;;14.50;41.80;;;;;;5045397;28;20438;-72
2022/09/12 00:05:02;;;;;;;13.33;7.90;;;14.50;41.80;;;;;;5049801;28;20448;-72
2022/09/12 00:07:28;;;;;;;13.37;7.40;;;14.50;41.80;;;;;;5044857;28;20174;-72
2022/09/12 00:09:53;;;;;;;10.53;7.83;;;14.50;41.80;;;;;;5048680;28;20434;-71
2022/09/12 00:12:19;;;;;;;9.77;7.10;;;14.60;41.90;;;;;;5040082;28;20267;-71
2022/09/12 00:14:44;;;;;;;11.10;8.27;;;14.50;41.70;;;;;;5048459;28;20188;-72
2022/09/12 00:17:11;;;;;;;9.30;7.77;;;14.50;41.70;;;;;;5054208;28;20212;-72
2022/09/12 00:19:36;;;;;;;9.27;7.30;;;14.50;41.80;;;;;;5048172;28;20177;-72
2022/09/12 00:22:02;;;;;;;13.77;7.73;;;14.50;41.70;;;;;;5051952;28;20428;-72
2022/09/12 00:24:28;;;;;;;9.10;7.10;;;14.40;41.60;;;;;;5039415;28;20343;-71
2022/09/12 00:26:53;;;;;;;12.80;7.27;;;14.40;41.60;;;;;;5046102;28;20208;-72
2022/09/12 00:29:20;;;;;;;10.43;7.60;;;14.40;41.80;;;;;;5044144;28;20185;-72
2022/09/12 00:31:46;;;;;;;17.37;8.00;;;14.40;41.60;;;;;;5047973;28;20177;-72
2022/09/12 00:34:12;;;;;;;12.07;7.70;;;14.30;41.60;;;;;;5041705;28;20592;-70
2022/09/12 00:36:38;;;;;;;18.33;8.20;;;14.20;41.50;;;;;;5048867;28;20192;-71
2022/09/12 00:39:04;;;;;;;12.00;7.77;;;14.40;41.70;;;;;;5046469;28;20431;-72
2022/09/12 00:41:31;;;;;;;10.13;7.07;;;14.20;41.50;;;;;;5048399;28;20902;-72
2022/09/12 00:44:21;;;;;;;14.33;7.87;;;14.20;41.60;;;;;;5041843;28;20238;-72
2022/09/12 00:46:57;;;;;;;13.63;7.70;;;14.10;41.40;;;;;;5043019;28;20473;-72
2022/09/12 00:49:30;;;;;;;11.33;7.80;;;14.10;41.40;;;;;;5044296;28;21003;-72
2022/09/12 00:52:02;;;;;;;10.30;7.60;;;14.00;41.30;;;;;;5047309;28;20411;-72
2022/09/12 00:54:32;;;;;;;10.83;7.80;;;14.00;41.30;;;;;;5039956;28;20518;-71
2022/09/12 00:57:03;;;;;;;11.17;8.37;;;14.00;41.30;;;;;;5048353;28;20762;-72
2022/09/12 00:59:38;;;;;;;13.03;8.40;;;14.00;41.30;;;;;;5044776;28;20435;-71
2022/09/12 01:02:04;;;;;;;15.37;7.77;;;14.00;41.30;;;;;;5029421;28;20603;-72
2022/09/12 01:04:29;;;;;;;11.93;8.43;;;14.00;41.30;;;;;;5045175;28;20578;-72
2022/09/12 01:06:57;;;;;;;9.40;7.23;;;13.90;41.40;;;;;;5041279;28;20208;-71
2022/09/12 01:09:24;;;;;;;12.83;8.10;;;14.00;41.50;;;;;;5049162;28;20165;-71
2022/09/12 01:11:52;;;;;;;10.63;8.00;;;13.90;41.30;;;;;;5041986;28;20799;-72
2022/09/12 01:14:19;;;;;;;9.87;7.13;;;13.90;41.20;;;;;;5041056;28;20446;-72
2022/09/12 01:16:46;;;;;;;12.90;7.90;;;13.90;41.30;;;;;;5054162;28;20512;-72
2022/09/12 01:19:50;;;;;;;12.03;7.43;;;13.90;41.40;;;;;;5048336;28;20461;-72
2022/09/12 01:22:52;;;;;;;14.37;6.80;;;13.90;41.20;;;;;;5037026;28;20458;-72
2022/09/12 01:25:36;;;;;;;10.40;7.53;;;13.90;41.20;;;;;;5040539;28;21076;-71
2022/09/12 01:28:21;;;;;;;11.97;7.10;;;13.90;41.30;;;;;;5043441;28;20439;-72
2022/09/12 01:30:50;;;;;;;9.03;7.40;;;14.00;41.30;;;;;;5044940;28;20459;-72
2022/09/12 01:33:34;;;;;;;10.57;7.30;;;13.90;41.40;;;;;;5046214;28;20428;-72
2022/09/12 01:36:23;;;;;;;14.30;8.10;;;14.00;41.30;;;;;;5036228;28;20451;-72
2022/09/12 01:39:26;;;;;;;11.13;7.50;;;13.90;41.30;;;;;;5016638;28;20432;-72
2022/09/12 01:42:05;;;;;;;12.13;7.97;;;13.80;41.10;;;;;;5024984;28;20761;-72
2022/09/12 01:45:05;;;;;;;9.50;7.20;;;13.80;41.20;;;;;;5040549;28;20539;-72
2022/09/12 01:47:45;;;;;;;15.37;8.27;;;13.70;41.30;;;;;;5047693;28;20415;-72
2022/09/12 01:50:23;;;;;;;9.70;7.10;;;13.70;43.70;;;;;;5033395;28;20469;-72
2022/09/12 01:52:54;;;;;;;9.47;7.40;;;13.60;41.00;;;;;;5047920;28;20415;-72
2022/09/12 01:55:26;;;;;;;10.83;7.40;;;13.60;41.20;;;;;;5046078;28;20975;-72
2022/09/12 01:57:58;;;;;;;9.63;6.80;;;13.60;41.00;;;;;;5048469;28;20439;-72
2022/09/12 02:00:24;;;;;;;9.30;7.43;;;13.60;41.10;;;;;;5052443;28;20404;-72
2022/09/12 02:03:01;;;;;;;11.87;7.63;;;13.50;40.90;;;;;;5047674;28;21044;-72
2022/09/12 02:05:32;;;;;;;14.13;8.40;;;13.50;40.90;;;;;;5050812;28;20215;-72
2022/09/12 02:08:03;;;;;;;12.37;8.27;;;13.40;40.90;;;;;;5048271;28;20827;-72
2022/09/12 02:10:33;;;;;;;13.83;8.20;;;13.40;40.90;;;;;;5051771;28;20433;-72
2022/09/12 02:13:08;;;;;;;11.53;8.20;;;13.40;42.90;;;;;;5047907;28;20474;-72
2022/09/12 02:15:41;;;;;;;10.67;7.70;;;13.40;44.60;;;;;;5052351;28;20471;-72
2022/09/12 02:18:11;;;;;;;9.27;7.50;;;13.40;40.80;;;;;;5034194;28;20431;-72
2022/09/12 02:20:38;;;;;;;10.00;6.93;;;13.40;40.80;;;;;;5050629;28;20415;-72
2022/09/12 02:23:10;;;;;;;13.10;7.90;;;13.30;40.70;;;;;;5046611;28;20973;-72
2022/09/12 02:25:41;;;;;;;9.47;6.93;;;13.30;40.90;;;;;;5054843;28;20452;-72
2022/09/12 02:28:12;;;;;;;10.47;7.83;;;13.20;40.70;;;;;;5043454;28;20762;-72
2022/09/12 02:30:58;;;;;;;15.17;9.07;;;13.20;40.70;;;;;;5048968;28;20396;-72
2022/09/12 02:33:31;;;;;;;14.70;7.87;;;13.10;41.10;;;;;;5049397;28;20432;-72
2022/09/12 02:36:05;;;;;;;11.80;7.90;;;13.10;41.00;;;;;;5050733;28;20531;-72
2022/09/12 02:38:41;;;;;;;11.20;7.47;;;13.00;52.00;;;;;;5051619;28;20400;-72
2022/09/12 02:41:07;;;;;;;10.33;7.70;;;13.10;52.70;;;;;;5042999;28;20526;-72
2022/09/12 02:43:33;;;;;;;10.53;7.50;;;13.20;47.90;;;;;;5049081;28;20529;-72
2022/09/12 02:45:59;;;;;;;13.37;7.97;;;13.20;42.10;;;;;;5054357;28;20827;-73
2022/09/12 02:48:30;;;;;;;13.20;7.60;;;13.20;40.80;;;;;;5057919;28;20178;-72
2022/09/12 02:50:56;;;;;;;11.20;7.30;;;13.20;41.60;;;;;;5048466;28;20234;-72
2022/09/12 02:53:22;;;;;;;13.17;8.30;;;13.20;48.40;;;;;;5044061;28;20431;-72
2022/09/12 02:55:48;;;;;;;15.63;7.90;;;13.20;40.90;;;;;;5049024;28;20631;-71
2022/09/12 02:58:19;;;;;;;10.20;7.77;;;13.20;40.80;;;;;;5044557;28;20515;-72
2022/09/12 03:00:58;;;;;;;10.67;7.97;;;13.20;52.30;;;;;;5048485;28;20296;-72
2022/09/12 03:03:40;;;;;;;10.30;7.20;;;13.10;45.50;;;;;;5044573;28;20495;-72
2022/09/12 03:06:17;;;;;;;10.93;8.00;;;13.10;46.00;;;;;;5042839;28;20455;-72
2022/09/12 03:08:52;;;;;;;11.07;7.83;;;13.10;41.60;;;;;;5040653;28;20477;-72
2022/09/12 03:11:36;;;;;;;12.13;8.07;;;13.10;49.50;;;;;;5048905;28;20431;-72
2022/09/12 03:14:31;;;;;;;9.10;7.63;;;13.10;47.50;;;;;;5049025;28;20430;-72
2022/09/12 03:17:24;;;;;;;12.63;7.60;;;13.10;46.20;;;;;;5046488;28;20486;-72
2022/09/12 03:20:00;;;;;;;12.83;7.43;;;13.10;48.00;;;;;;5043166;28;20470;-72
2022/09/12 03:22:49;;;;;;;17.80;7.90;;;13.10;40.90;;;;;;5046564;28;20431;-72
2022/09/12 03:25:17;;;;;;;11.17;7.30;;;13.10;43.10;;;;;;5042667;28;20467;-73
2022/09/12 03:27:55;;;;;;;13.00;7.83;;;13.00;43.70;;;;;;5042503;28;20448;-72
2022/09/12 03:30:21;;;;;;;15.13;7.37;;;12.90;44.80;;;;;;5048829;28;20854;-72
2022/09/12 03:32:49;;;;;;;11.20;7.30;;;12.90;49.00;;;;;;5043113;28;20451;-72
2022/09/12 03:35:17;;;;;;;14.50;7.70;;;13.00;46.80;;;;;;5049008;28;20285;-72
2022/09/12 03:37:42;;;;;;;16.03;8.10;;;12.90;41.80;;;;;;5043331;28;20543;-72
2022/09/12 03:40:10;;;;;;;9.43;7.50;;;12.90;40.50;;;;;;5050723;28;20501;-72
2022/09/12 03:42:36;;;;;;;13.73;7.80;;;12.90;40.40;;;;;;5043990;28;20216;-72
2022/09/12 03:45:02;;;;;;;12.07;7.20;;;12.90;40.40;;;;;;5050221;28;20461;-72
2022/09/12 03:47:28;;;;;;;11.53;7.50;;;12.90;41.70;;;;;;5046757;28;20946;-72
2022/09/12 03:49:53;;;;;;;10.80;7.67;;;12.90;45.20;;;;;;5049313;28;20270;-72
2022/09/12 03:52:19;;;;;;;11.20;7.87;;;12.90;48.00;;;;;;5047860;28;20405;-72
2022/09/12 03:54:45;;;;;;;8.77;7.17;;;13.00;43.20;;;;;;5043168;28;20231;-72
2022/09/12 03:57:10;;;;;;;13.40;7.20;;;12.90;40.50;;;;;;5044190;28;20463;-72
2022/09/12 03:59:36;;;;;;;11.27;7.90;;;12.90;40.60;;;;;;5050187;28;20173;-71
2022/09/12 04:02:03;;;;;;;12.30;8.03;;;12.90;40.50;;;;;;5035499;28;20591;-72
2022/09/12 04:04:28;;;;;;;13.07;8.10;;;12.90;46.10;;;;;;5049165;28;20864;-72
2022/09/12 04:06:54;;;;;;;12.00;7.80;;;12.90;44.10;;;;;;5045218;28;20459;-72
2022/09/12 04:09:19;;;;;;;11.33;8.53;;;12.90;40.80;;;;;;5049133;28;20165;-72
2022/09/12 04:11:45;;;;;;;10.77;7.73;;;12.80;40.50;;;;;;5044772;28;20257;-72
2022/09/12 04:14:11;;;;;;;9.27;7.67;;;12.80;46.20;;;;;;5048478;28;20279;-73
2022/09/12 04:16:36;;;;;;;14.47;8.00;;;12.80;40.50;;;;;;5050794;28;20192;-72
2022/09/12 04:19:02;;;;;;;10.00;6.97;;;12.80;40.40;;;;;;5049906;28;20239;-72
2022/09/12 04:21:27;;;;;;;12.13;7.93;;;12.70;40.30;;;;;;5047986;28;20188;-72
2022/09/12 04:23:53;;;;;;;15.13;8.20;;;12.60;40.30;;;;;;5044725;28;20579;-72
2022/09/12 04:26:20;;;;;;;12.57;8.30;;;12.60;47.10;;;;;;5048501;28;20189;-72
2022/09/12 04:28:47;;;;;;;9.40;7.40;;;12.60;40.40;;;;;;5044183;28;20204;-72
2022/09/12 04:31:17;;;;;;;15.30;7.70;;;12.60;40.20;;;;;;5049336;28;20495;-72
2022/09/12 04:33:44;;;;;;;11.57;7.20;;;12.50;40.10;;;;;;5045418;28;20524;-72
2022/09/12 04:36:13;;;;;;;9.40;7.33;;;12.40;40.00;;;;;;5048472;28;20518;-72
2022/09/12 04:38:39;;;;;;;15.57;8.00;;;12.40;40.00;;;;;;5046370;28;20978;-72
2022/09/12 04:41:18;;;;;;;11.90;8.43;;;12.40;40.10;;;;;;5048429;28;20458;-72
2022/09/12 04:43:47;;;;;;;10.93;7.53;;;12.30;39.80;;;;;;5047766;28;20223;-72
2022/09/12 04:46:15;;;;;;;15.40;8.97;;;12.30;47.10;;;;;;5049246;28;20468;-72
2022/09/12 04:48:41;;;;;;;13.83;8.47;;;12.30;43.60;;;;;;5040177;28;20432;-72
2022/09/12 04:51:08;;;;;;;13.17;7.90;;;12.30;40.20;;;;;;5048643;28;20975;-72
2022/09/12 04:53:34;;;;;;;12.63;8.73;;;12.20;43.10;;;;;;5040582;28;20440;-72
2022/09/12 04:56:07;;;;;;;12.43;7.97;;;12.20;50.30;;;;;;5038953;28;20431;-72
2022/09/12 04:58:34;;;;;;;13.40;8.27;;;12.20;51.70;;;;;;5041639;28;20436;-72
2022/09/12 05:01:08;;;;;;;13.60;8.20;;;12.20;50.80;;;;;;5040927;28;20411;-72
2022/09/12 05:03:34;;;;;;;12.70;7.57;;;12.20;48.90;;;;;;5039649;28;20989;-72
2022/09/12 05:06:02;;;;;;;17.27;8.30;;;12.20;50.90;;;;;;5038411;28;20574;-71
2022/09/12 05:08:28;;;;;;;12.77;8.17;;;12.20;50.00;;;;;;5049043;28;20414;-72
2022/09/12 05:10:54;;;;;;;10.43;7.70;;;12.20;48.70;;;;;;5047248;28;20782;-72
2022/09/12 05:13:19;;;;;;;12.27;7.27;;;12.20;47.60;;;;;;5038248;28;20261;-72
2022/09/12 05:15:54;;;;;;;12.93;8.20;;;12.20;52.20;;;;;;5049273;28;20689;-72
2022/09/12 05:18:20;;;;;;;14.70;8.37;;;12.30;49.00;;;;;;5041581;28;20176;-73
2022/09/12 05:20:45;;;;;;;11.37;7.40;;;12.30;49.60;;;;;;5049683;28;20411;-72
2022/09/12 05:23:11;;;;;;;9.77;8.03;;;12.30;47.30;;;;;;5048610;28;20510;-73
2022/09/12 05:25:37;;;;;;;9.80;7.50;;;12.40;45.30;;;;;;5046858;28;20205;-73
2022/09/12 05:28:02;;;;;;;11.00;7.40;;;12.50;40.20;;;;;;5047849;28;20660;-72
2022/09/12 05:30:28;;;;;;;13.43;8.03;;;12.50;40.10;;;;;;5053280;28;20166;-72
2022/09/12 05:32:53;;;;;;;11.40;7.97;;;12.60;40.20;;;;;;5043054;28;20184;-72
2022/09/12 05:35:18;;;;;;;13.53;7.73;;;12.60;40.20;;;;;;5052287;28;20201;-72
2022/09/12 05:37:44;;;;;;;11.47;7.80;;;12.60;40.40;;;;;;5045433;28;20346;-71
2022/09/12 05:40:10;;;;;;;19.33;9.00;;;13.10;40.90;;;;;;5048027;28;20288;-73
2022/09/12 05:42:35;;;;;;;13.47;9.23;;;12.80;40.40;;;;;;5038404;28;20181;-72
2022/09/12 05:45:01;;;;;;;11.57;8.17;;;12.80;42.20;;;;;;5047013;28;20201;-73
2022/09/12 05:47:26;;;;;;;11.00;8.73;;;12.90;40.50;;;;;;5048799;28;20590;-71
2022/09/12 05:49:52;;;;;;;16.63;9.30;;;13.00;40.50;;;;;;5052159;28;20663;-71
2022/09/12 05:52:19;;;;;;;13.13;9.23;;;13.10;40.60;;;;;;5046469;28;20643;-71
2022/09/12 05:54:45;;;;;;;15.90;9.10;;;13.10;40.60;;;;;;5047095;28;20400;-72
2022/09/12 05:57:11;;;;;;;13.40;10.97;;;13.30;40.90;;;;;;5042807;28;20466;-72
2022/09/12 05:59:36;;;;;;;21.00;9.43;;;13.30;40.90;;;;;;5037914;28;20440;-71
2022/09/12 06:02:02;;;;;;;15.30;10.80;;;13.40;40.80;;;;;;5044695;28;20551;-72
2022/09/12 06:04:27;;;;;;;14.27;10.30;;;13.50;42.80;;;;;;5043046;28;20214;-72
2022/09/12 06:06:53;;;;;;;13.43;9.60;;;13.70;41.10;;;;;;5050951;28;20193;-72
2022/09/12 06:09:18;;;;;;;16.10;11.10;;;13.90;41.30;;;;;;5049013;28;20644;-72
2022/09/12 06:11:45;;;;;;;15.63;11.47;;;14.20;41.50;;;;;;5051145;28;20247;-71
2022/09/12 06:14:13;;;;;;;17.30;11.20;;;14.50;41.80;;;;;;5041213;28;20178;-72
2022/09/12 06:16:38;;;;;;;21.43;12.70;;;14.70;42.00;;;;;;5046817;28;20509;-72
2022/09/12 06:19:06;;;;;;;16.73;12.23;;;15.00;42.20;;;;;;5048770;28;20900;-73
2022/09/12 06:21:34;;;;;;;14.03;10.40;;;15.20;42.30;;;;;;5048941;28;20647;-73
2022/09/12 06:24:00;;;;;;;12.87;10.10;;;15.80;42.60;;;;;;5046585;28;20896;-75
2022/09/12 06:26:28;;;;;;;11.03;8.87;;;16.40;25.80;;;;;;5041570;28;20447;-74
2022/09/12 06:28:55;;;;;;;12.90;9.73;;;17.20;18.40;;;;;;5049982;28;20435;-75
2022/09/12 06:31:24;;;;;;;13.10;10.57;;;17.90;3.40;;;;;;5040957;28;20593;-75
2022/09/12 06:33:51;;;;;;;15.40;11.27;;;18.70;1.00;;;;;;5050800;28;20423;-76
2022/09/12 06:36:20;;;;;;;11.20;9.73;;;19.20;1.00;;;;;;5040644;28;20455;-76
2022/09/12 06:38:46;;;;;;;14.33;9.50;;;19.90;1.00;;;;;;5049194;28;20781;-76
2022/09/12 06:41:12;;;;;;;13.80;9.03;;;20.60;1.00;;;;;;5041619;28;20541;-76
2022/09/12 06:43:39;;;;;;;10.60;9.10;;;21.10;1.00;;;;;;5047732;28;20533;-74
2022/09/12 06:46:05;;;;;;;11.63;9.30;;;21.10;1.00;;;;;;5039427;28;20216;-74
2022/09/12 06:48:31;;;;;;;13.37;10.30;;;20.70;1.00;;;;;;5052317;28;20423;-74
2022/09/12 06:51:12;;;;;;;12.03;9.47;;;20.30;1.00;;;;;;5036864;28;20243;-74
2022/09/12 06:53:38;;;;;;;14.73;9.47;;;19.90;1.00;;;;;;5044397;28;20178;-74
2022/09/12 06:56:25;;;;;;;13.80;9.90;;;20.00;1.00;;;;;;5047039;28;20479;-74
2022/09/12 06:58:52;;;;;;;15.37;9.67;;;20.60;1.00;;;;;;5059383;28;20429;-74
2022/09/12 07:01:23;;;;;;;13.73;10.27;;;20.90;1.00;;;;;;5047185;28;20773;-75
2022/09/12 07:03:51;;;;;;;11.43;9.87;;;20.80;1.00;;;;;;5050598;28;20430;-73
2022/09/12 07:06:19;;;;;;;13.30;10.13;;;20.40;1.00;;;;;;5051542;28;20467;-74
2022/09/12 07:08:44;;;;;;;13.10;9.40;;;20.10;1.00;;;;;;5041055;28;20753;-74
2022/09/12 07:11:12;;;;;;;11.03;9.10;;;19.90;1.00;;;;;;5055353;28;20487;-73
2022/09/12 07:13:43;;;;;;;14.23;9.93;;;19.70;1.00;;;;;;5057386;28;20256;-73
2022/09/12 07:16:10;;;;;;;11.70;8.70;;;19.90;1.00;;;;;;5055751;28;20442;-74
2022/09/12 07:18:37;;;;;;;11.20;8.20;;;20.80;1.00;;;;;;5046426;28;20514;-74
2022/09/12 07:21:05;;;;;;;10.87;8.60;;;21.90;1.00;;;;;;5050174;28;20430;-74
2022/09/12 07:23:31;;;;;;;10.33;8.70;;;23.10;1.00;;;;;;5052396;28;20439;-74
2022/09/12 07:25:58;;;;;;;12.60;8.20;;;24.00;1.00;;;;;;5059001;28;20845;-75
2022/09/12 07:28:25;;;;;;;10.80;8.10;;;24.50;1.00;;;;;;5041646;28;20192;-73
2022/09/12 07:30:52;;;;;;;9.50;8.50;;;25.20;1.00;;;;;;5048899;28;20423;-74
2022/09/12 07:33:37;;;;;;;10.73;7.80;;;25.50;1.00;;;;;;5045067;28;20474;-74
2022/09/12 07:36:05;;;;;;;7.93;7.13;;;26.00;1.00;;;;;;5043447;28;20776;-75
2022/09/12 07:38:30;;;;;;;8.90;8.00;;;26.20;1.00;;;;;;5043213;28;20529;-74
2022/09/12 07:40:56;;;;;;;8.47;7.30;;;26.60;1.00;;;;;;5050191;28;20259;-74
2022/09/12 07:43:22;;;;;;;8.97;8.07;;;26.80;1.00;;;;;;5045972;28;20505;-74
2022/09/12 07:45:47;;;;;;;8.93;7.67;;;27.00;1.00;;;;;;5045993;28;20208;-74
2022/09/12 07:48:13;;;;;;;8.87;7.87;;;27.20;1.00;;;;;;5050700;28;20171;-74
2022/09/12 07:50:39;;;;;;;9.83;7.80;;;27.30;1.00;;;;;;5049113;28;20245;-74
2022/09/12 07:53:05;;;;;;;9.13;7.57;;;27.40;1.00;;;;;;5043019;28;20422;-74
2022/09/12 07:55:31;;;;;;;9.60;7.73;;;27.60;1.00;;;;;;5039699;28;20691;-75
2022/09/12 07:57:57;;;;;;;7.47;6.77;;;27.80;1.00;;;;;;5049500;28;20179;-74
2022/09/12 08:00:22;;;;;;;8.50;7.60;;;27.70;1.00;;;;;;5046215;28;20181;-74
2022/09/12 08:02:52;;;;;;;7.93;7.10;;;27.90;1.00;;;;;;5041599;28;20440;-74
2022/09/12 08:05:18;;;;;;;10.73;6.97;;;28.20;1.00;;;;;;5047082;28;20215;-75
2022/09/12 08:07:43;;;;;;;8.00;7.18;;;28.70;1.00;;;;;;5039678;28;20235;-75
2022/09/12 08:10:09;;;;;;;7.80;7.00;;;28.70;1.00;;;;;;5055408;28;20195;-75
2022/09/12 08:12:35;;;;;;;7.32;6.63;;;28.50;1.00;;;;;;5049782;28;20184;-74
2022/09/12 08:15:01;;;;;;;7.15;5.93;;;28.90;1.00;;;;;;5045559;28;20208;-74
2022/09/12 08:17:28;;;;;;;8.18;6.40;;;30.00;1.00;;;;;;5036078;28;20656;-75
2022/09/12 08:19:54;;;;;;;7.93;6.68;;;30.60;1.00;;;;;;5045765;28;20184;-75
2022/09/12 08:22:20;;;;;;;7.10;5.97;;;31.20;1.00;;;;;;5057438;28;20187;-75
2022/09/12 08:24:46;;;;;;;7.00;6.32;;;31.60;1.00;;;;;;5053944;28;20662;-74
2022/09/12 08:27:13;;;;;;;7.20;6.50;;;31.50;1.00;;;;;;5040939;28;20216;-74
2022/09/12 08:29:39;;;;;;;6.93;6.20;;;31.40;1.00;;;;;;5050084;28;20237;-75
2022/09/12 08:32:05;;;;;;;7.10;6.40;;;31.30;1.00;;;;;;5054072;28;20184;-75
2022/09/12 08:34:30;;;;;;;7.05;6.35;;;31.60;1.00;;;;;;5049378;28;20575;-75
2022/09/12 08:36:56;;;;;;;8.30;6.38;;;32.00;1.00;;;;;;5042085;28;20535;-75
2022/09/12 08:39:23;;;;;;;6.28;5.43;;;32.60;1.00;;;;;;5043748;28;20187;-75
2022/09/12 08:42:21;;;;;;;8.10;5.22;;;33.30;1.00;;;;;;5053534;28;20548;-74
2022/09/12 08:45:05;;;;;;;6.13;5.38;;;32.90;1.00;;;;;;5044669;28;20230;-75
2022/09/12 08:47:37;;;;;;;9.80;5.93;;;32.50;1.00;;;;;;5050069;28;20676;-75
2022/09/12 08:50:15;;;;;;;6.78;6.07;;;32.40;1.00;;;;;;5049441;28;20180;-74
2022/09/12 08:52:58;;;;;;;7.22;6.30;;;32.10;1.00;;;;;;5059628;28;20219;-74
2022/09/12 08:55:56;;;;;;;6.82;5.93;;;32.20;1.00;;;;;;5040276;28;20224;-76
2022/09/12 08:58:23;;;;;;;6.85;6.10;;;32.20;1.00;;;;;;5044552;28;20219;-74
2022/09/12 09:01:14;;;;;;;7.68;6.18;;;32.40;1.00;;;;;;5049868;28;20707;-74
2022/09/12 09:04:05;;;;;;;6.60;5.90;;;32.30;1.00;;;;;;5054859;28;20669;-75
2022/09/12 09:07:02;;;;;;;8.75;6.13;;;32.40;1.00;;;;;;5048291;28;20250;-75
2022/09/12 09:09:59;;;;;;;6.80;6.10;;;32.80;1.00;;;;;;5052739;28;20173;-75
2022/09/12 09:12:37;;;;;;;7.43;5.97;;;33.10;1.00;;;;;;5050803;28;20267;-75
2022/09/12 09:15:22;;;;;;;6.40;5.50;;;34.00;1.00;;;;;;5045393;28;20172;-75
2022/09/12 09:18:07;;;;;;;8.43;4.60;;;35.10;1.00;;;;;;5054699;28;20200;-75
2022/09/12 09:20:44;;;;;;;5.95;5.22;;;36.00;1.00;;;;;;5036899;28;20174;-75
2022/09/12 09:23:34;;;;;;;6.32;5.63;;;36.40;1.00;;;;;;5037715;28;20626;-75
2022/09/12 09:26:07;;;;;;;7.78;5.20;;;36.70;1.00;;;;;;5051536;28;20207;-75
2022/09/12 09:28:40;;;;;;;6.18;5.55;;;36.60;1.00;;;;;;5051869;28;20185;-75
2022/09/12 09:31:14;;;;;;;9.43;4.88;;;35.90;1.00;;;;;;5042017;28;20489;-75
2022/09/12 09:33:40;;;;;;;9.18;4.93;;;35.90;1.00;;;;;;5037481;28;20172;-75
2022/09/12 09:36:21;;;;;;;6.85;5.05;;;36.00;1.00;;;;;;5046651;28;20216;-77
2022/09/12 09:39:13;;;;;;;5.60;5.00;;;36.50;1.00;;;;;;5040365;28;20207;-75
2022/09/12 09:42:08;;;;;;;6.20;5.13;;;36.70;1.00;;;;;;5050347;28;20200;-75
2022/09/12 09:44:33;;;;;;;7.43;4.82;;;36.20;1.00;;;;;;5049373;28;20200;-75
2022/09/12 09:47:00;;;;;;;6.40;5.38;;;35.40;1.00;;;;;;5060172;28;20531;-75
2022/09/12 09:49:33;;;;;;;5.90;5.30;;;34.80;1.00;;;;;;5045188;28;20256;-75
2022/09/12 09:51:59;;;;;;;9.63;5.28;;;34.70;1.00;;;;;;5048372;28;20200;-74
2022/09/12 09:54:49;;;;;;;6.25;4.70;;;34.70;1.00;;;;;;5044249;28;20189;-75
2022/09/12 09:57:33;;;;;;;5.10;4.60;;;34.40;1.00;;;;;;5046387;28;20671;-75
2022/09/12 10:00:26;;;;;;;7.88;5.72;;;34.10;1.00;;;;;;5051475;28;20181;-76
2022/09/12 10:03:11;;;;;;;6.93;5.10;;;33.80;1.00;;;;;;5052496;28;20677;-75
2022/09/12 10:05:54;;;;;;;6.55;5.20;;;33.40;1.00;;;;;;5045431;28;20219;-76
2022/09/12 10:08:49;;;;;;;4.97;4.47;;;33.30;1.00;;;;;;5049865;28;20181;-74
2022/09/12 10:11:14;;;;;;;6.35;5.35;;;34.00;1.00;;;;;;5036700;28;20191;-75
2022/09/12 10:14:00;;;;;;;5.50;4.97;;;34.00;1.00;;;;;;5043086;28;20177;-75
2022/09/12 10:16:31;;;;;;;7.13;5.30;;;33.80;1.00;;;;;;5046071;28;20237;-76
2022/09/12 10:18:59;;;;;;;6.40;4.95;;;34.10;1.00;;;;;;5042239;28;20179;-75
2022/09/12 10:21:40;;;;;;;6.38;5.00;;;34.70;1.00;;;;;;5044370;28;20183;-74
2022/09/12 10:24:27;;;;;;;6.40;5.80;;;35.50;1.00;;;;;;5050502;28;20230;-74
2022/09/12 10:26:56;;;;;;;6.00;5.20;;;36.10;1.00;;;;;;5050678;28;20211;-76
2022/09/12 10:29:32;;;;;;;9.77;5.13;;;36.80;1.00;;;;;;5050129;28;20165;-75
2022/09/12 10:32:02;;;;;;;6.53;5.00;;;36.40;1.00;;;;;;5051866;28;20361;-75
2022/09/12 10:34:43;;;;;;;4.80;4.15;;;36.60;1.00;;;;;;5049102;28;20176;-75
2022/09/12 10:37:20;;;;;;;5.18;4.68;;;37.10;1.00;;;;;;5044713;28;20194;-75
2022/09/12 10:39:53;;;;;;;5.55;4.97;;;37.10;1.00;;;;;;5050347;28;20656;-76
2022/09/12 10:42:41;;;;;;;4.93;4.40;;;37.50;1.00;;;;;;5049155;28;20204;-74
2022/09/12 10:45:19;;;;;;;5.57;4.57;;;39.00;1.00;;;;;;5039171;28;20517;-75
2022/09/12 10:47:45;;;;;;;5.38;4.53;;;39.00;1.00;;;;;;5055825;28;20479;-75
2022/09/12 10:50:40;;;;;;;5.15;4.65;;;38.70;1.00;;;;;;5044927;28;20180;-75
2022/09/12 10:53:42;;;;;;;5.35;4.10;;;38.90;1.00;;;;;;5042474;28;20260;-76
2022/09/12 10:56:16;;;;;;;6.35;4.30;;;39.10;1.00;;;;;;5024536;28;20216;-76
2022/09/12 10:58:52;;;;;;;4.72;4.22;;;38.90;1.00;;;;;;5047368;28;20174;-76
2022/09/12 11:01:20;;;;;;;6.40;3.83;;;39.80;1.00;;;;;;5040282;28;20733;-76
2022/09/12 11:04:14;;;;;;;5.78;3.50;;;40.20;1.00;;;;;;5049463;28;20172;-76
2022/09/12 11:07:13;;;;;;;4.28;3.88;;;39.60;1.00;;;;;;5042223;28;20197;-76
2022/09/12 11:09:53;;;;;;;4.90;4.25;;;38.80;1.00;;;;;;5051671;28;20191;-76
2022/09/12 11:12:41;;;;;;;5.03;3.47;;;39.00;1.00;;;;;;5044246;28;20176;-76
2022/09/12 11:15:36;;;;;;;5.15;3.63;;;38.70;1.00;;;;;;5044917;28;20181;-77
2022/09/12 11:18:20;;;;;;;4.50;3.10;;;38.60;1.00;;;;;;5036902;28;20192;-76
2022/09/12 11:20:58;;;;;;;4.22;3.75;;;38.60;1.00;;;;;;5045634;28;20201;-76
2022/09/12 11:23:41;;;;;;;5.07;3.40;;;39.10;1.00;;;;;;5035783;28;20181;-76
2022/09/12 11:26:16;;;;;;;7.05;3.45;;;39.30;1.00;;;;;;5043941;28;20204;-76
2022/09/12 11:29:07;;;;;;;4.00;3.42;;;38.80;1.00;;;;;;5032356;28;20181;-76
2022/09/12 11:31:52;;;;;;;3.65;3.08;;;38.80;1.00;;;;;;5050870;28;20169;-76
2022/09/12 11:34:34;;;;;;;4.82;3.15;;;39.20;1.00;;;;;;5045096;28;20235;-76
2022/09/12 11:37:22;;;;;;;7.43;3.30;;;39.80;1.00;;;;;;5032408;28;20679;-76
2022/09/12 11:39:50;;;;;;;8.43;3.20;;;39.70;1.00;;;;;;5051139;28;20171;-76
2022/09/12 11:42:27;;;;;;;3.72;3.20;;;39.40;1.00;;;;;;5046879;28;20185;-76
2022/09/12 11:45:03;;;;;;;7.95;3.40;;;40.00;1.00;;;;;;5048448;28;20211;-76
2022/09/12 11:47:30;;;;;;;3.97;2.95;;;40.30;1.00;;;;;;5047135;28;20268;-76
2022/09/12 11:49:58;;;;;;;3.80;2.90;;;40.60;1.00;;;;;;5049731;28;20168;-76
2022/09/12 11:52:28;;;;;;;4.35;3.10;;;40.90;1.00;;;;;;5046057;28;20172;-76
2022/09/12 11:55:17;;;;;;;4.85;3.03;;;40.70;1.00;;;;;;5049753;28;20188;-76
2022/09/12 11:57:44;;;;;;;5.00;3.15;;;40.70;1.00;;;;;;5046516;28;20177;-76
2022/09/12 12:00:30;;;;;;;3.50;3.10;;;40.60;1.00;;;;;;5031963;28;20182;-76
2022/09/12 12:03:19;;;;;;;3.88;3.13;;;41.10;1.00;;;;;;5050243;28;20184;-76
2022/09/12 12:06:06;;;;;;;4.32;3.40;;;41.20;1.00;;;;;;5043051;28;20220;-76
2022/09/12 12:08:38;;;;;;;4.90;3.22;;;40.80;1.00;;;;;;5049711;28;20582;-76
2022/09/12 12:11:05;;;;;;;3.42;2.70;;;41.60;1.00;;;;;;5049395;28;20180;-76
2022/09/12 12:13:34;;;;;;;3.38;2.85;;;41.80;1.00;;;;;;5045109;28;20267;-77
2022/09/12 12:16:20;;;;;;;4.70;2.60;;;42.20;1.00;;;;;;5047385;28;20196;-76
2022/09/12 12:18:54;;;;;;;7.05;3.05;;;42.00;1.00;;;;;;5046355;28;20181;-76
2022/09/12 12:21:38;;;;;;;3.30;2.88;;;41.60;1.00;;;;;;5050454;28;20176;-76
2022/09/12 12:24:07;;;;;;;3.03;2.58;;;41.70;1.00;;;;;;5038680;28;20187;-76
2022/09/12 12:26:39;;;;;;;6.65;2.88;;;41.90;1.00;;;;;;5050712;28;20287;-76
2022/09/12 12:29:14;;;;;;;3.75;2.80;;;41.20;1.00;;;;;;5049245;28;20188;-76
2022/09/12 12:32:18;;;;;;;5.60;3.03;;;41.10;1.00;;;;;;5041088;28;20255;-76
2022/09/12 12:34:45;;;;;;;3.97;2.75;;;41.00;1.00;;;;;;5047949;28;20184;-76
2022/09/12 12:37:28;;;;;;;3.75;3.00;;;42.00;1.00;;;;;;5049221;28;20239;-76
2022/09/12 12:40:08;;;;;;;8.38;2.85;;;42.60;1.00;;;;;;5036115;28;20271;-76
2022/09/12 12:42:34;;;;;;;3.42;2.50;;;42.60;1.00;;;;;;5041482;28;20176;-76
2022/09/12 12:45:16;;;;;;;5.85;2.80;;;42.80;1.00;;;;;;5045302;28;20610;-76
2022/09/12 12:47:45;;;;;;;3.50;2.50;;;42.90;1.00;;;;;;5045219;28;20227;-76
2022/09/12 12:50:19;;;;;;;3.92;3.05;;;43.00;1.00;;;;;;5049904;28;20169;-76
2022/09/12 12:52:48;;;;;;;2.90;2.53;;;42.30;1.00;;;;;;5045021;28;20199;-76
2022/09/12 12:55:16;;;;;;;4.63;2.70;;;41.90;1.00;;;;;;5049093;28;20200;-76
2022/09/12 12:57:50;;;;;;;4.63;2.67;;;41.20;1.00;;;;;;5047345;28;20389;-76
2022/09/12 13:00:25;;;;;;;4.47;2.80;;;41.00;1.00;;;;;;5048596;28;20180;-76
2022/09/12 13:03:05;;;;;;;3.83;2.63;;;40.80;1.00;;;;;;5049671;28;20171;-76
2022/09/12 13:05:38;;;;;;;3.88;2.70;;;41.60;1.00;;;;;;5044095;28;20737;-76
2022/09/12 13:08:31;;;;;;;7.18;2.50;;;42.00;1.00;;;;;;5039765;28;20177;-76
2022/09/12 13:11:01;;;;;;;4.85;2.80;;;41.40;1.00;;;;;;5044720;28;20192;-75
2022/09/12 13:13:30;;;;;;;3.72;2.92;;;41.20;1.00;;;;;;5044173;28;20173;-76